createdAt,value
2019-03-12T00:00:23.081Z,2.12
2019-03-12T00:02:53.736Z,3.45
2019-03-12T00:07:54.118Z,2.90
2019-03-12T00:12:54.602Z,4.00
2019-03-12T00:17:55.188Z,4.45
2019-03-12T00:22:55.468Z,2.22
2019-03-12T00:27:55.955Z,4.08
2019-03-12T00:32:56.545Z,2.75
2019-03-12T00:37:57.111Z,2.30
2019-03-12T00:42:58.845Z,3.80
2019-03-12T00:45:29.373Z,4.12
2019-03-12T00:48:01.882Z,3.85
2019-03-12T00:53:02.350Z,1.52
2019-03-12T00:58:02.755Z,1.92
2019-03-12T01:00:33.400Z,4.40
2019-03-12T01:03:03.626Z,3.67
2019-03-12T01:08:04.115Z,2.20
2019-03-12T01:10:34.660Z,2.00
2019-03-12T01:15:36.700Z,1.70
2019-03-12T01:18:07.330Z,2.22
2019-03-12T01:20:38.003Z,3.72
2019-03-12T01:25:38.469Z,2.33
2019-03-12T01:28:09.016Z,4.62
2019-03-12T01:30:39.583Z,1.35
2019-03-12T01:35:40.070Z,2.93
2019-03-12T01:40:41.576Z,2.00
2019-03-12T01:43:12.215Z,3.67
2019-03-12T01:48:12.595Z,1.23
2019-03-12T01:53:13.198Z,2.12
2019-03-12T01:55:43.731Z,1.35
2019-03-12T02:00:45.341Z,2.80
2019-03-12T02:05:45.841Z,2.62
2019-03-12T02:10:46.227Z,2.07
2019-03-12T02:15:46.811Z,3.55
2019-03-12T02:20:47.380Z,1.45
2019-03-12T02:25:47.750Z,1.80
2019-03-12T02:28:18.534Z,2.50
2019-03-12T02:30:49.110Z,2.47
2019-03-12T02:35:49.675Z,3.45
2019-03-12T02:38:20.209Z,6.22
2019-03-12T02:43:22.021Z,4.72
2019-03-12T02:45:52.568Z,2.87
2019-03-12T02:50:52.969Z,5.22
2019-03-12T02:53:23.625Z,3.58
2019-03-12T02:55:54.275Z,5.87
2019-03-12T02:58:24.906Z,4.92
2019-03-12T03:03:25.307Z,4.03
2019-03-12T03:05:57.495Z,5.22
2019-03-12T03:08:29.679Z,3.55
2019-03-12T03:11:00.326Z,3.00
2019-03-12T03:13:30.984Z,2.87
2019-03-12T03:16:01.517Z,3.15
2019-03-12T03:18:32.370Z,2.30
2019-03-12T03:23:32.852Z,3.30
2019-03-12T03:26:03.506Z,3.60
2019-03-12T03:31:03.960Z,1.93
2019-03-12T03:33:34.788Z,2.17
2019-03-12T03:36:05.412Z,2.92
2019-03-12T03:38:36.064Z,4.20
2019-03-12T03:41:07.189Z,2.27
2019-03-12T03:43:37.578Z,2.67
2019-03-12T03:48:37.953Z,3.50
2019-03-12T03:51:08.614Z,1.75
2019-03-12T03:56:09.070Z,4.60
2019-03-12T03:58:39.627Z,3.22
2019-03-12T04:01:10.173Z,2.72
2019-03-12T04:06:10.561Z,4.33
2019-03-12T04:08:41.105Z,6.47
2019-03-12T04:13:41.498Z,1.53
2019-03-12T04:18:41.990Z,3.53
2019-03-12T04:21:12.622Z,3.20
2019-03-12T04:23:43.172Z,3.80
2019-03-12T04:26:13.736Z,4.08
2019-03-12T04:31:14.328Z,3.87
2019-03-12T04:34:02.958Z,2.87
2019-03-12T04:36:33.629Z,3.80
2019-03-12T04:41:35.650Z,3.30
2019-03-12T04:44:06.095Z,2.67
2019-03-12T04:49:06.459Z,2.98
2019-03-12T04:54:06.945Z,10.82
2019-03-12T04:59:07.645Z,5.92
2019-03-12T05:04:08.220Z,7.65
2019-03-12T05:06:38.772Z,15.83
2019-03-12T05:09:09.545Z,12.65
2019-03-12T05:11:40.296Z,11.53
2019-03-12T05:14:25.145Z,19.02
2019-03-12T05:16:58.272Z,16.15
2019-03-12T05:19:30.007Z,16.00
2019-03-12T05:22:00.389Z,10.25
2019-03-12T05:24:31.246Z,8.83
2019-03-12T05:27:01.903Z,13.30
2019-03-12T05:29:32.641Z,11.90
2019-03-12T05:32:03.288Z,22.87
2019-03-12T05:34:34.142Z,8.10
2019-03-12T05:37:04.812Z,9.53
2019-03-12T05:39:35.460Z,8.73
2019-03-12T05:44:36.956Z,9.55
2019-03-12T05:47:08.295Z,13.30
2019-03-12T05:49:39.081Z,12.55
2019-03-12T05:52:09.948Z,7.40
2019-03-12T05:54:40.601Z,6.22
2019-03-12T05:59:41.086Z,10.70
2019-03-12T06:02:11.722Z,13.22
2019-03-12T06:07:12.325Z,14.03
2019-03-12T06:09:42.959Z,7.75
2019-03-12T06:12:13.505Z,9.35
2019-03-12T06:17:14.009Z,7.27
2019-03-12T06:19:44.555Z,4.42
2019-03-12T06:22:15.210Z,6.25
2019-03-12T06:24:45.862Z,11.12
2019-03-12T06:27:18.183Z,22.50
2019-03-12T06:29:48.680Z,16.75
2019-03-12T06:34:52.559Z,21.55
2019-03-12T06:37:27.611Z,18.77
2019-03-12T06:40:08.368Z,16.10
2019-03-12T06:42:44.666Z,20.15
2019-03-12T06:45:33.502Z,19.27
2019-03-12T06:48:05.808Z,19.23
2019-03-12T06:50:38.076Z,22.87
2019-03-12T06:53:16.416Z,15.00
2019-03-12T06:56:03.839Z,20.48
2019-03-12T06:58:51.571Z,13.35
2019-03-12T07:01:29.995Z,18.35
2019-03-12T07:04:08.422Z,13.95
2019-03-12T07:07:00.712Z,11.43
2019-03-12T07:09:49.209Z,16.05
2019-03-12T07:15:23.318Z,19.15
2019-03-12T07:17:55.711Z,15.68
2019-03-12T07:20:37.426Z,15.53
2019-03-12T07:23:15.422Z,12.63
2019-03-12T07:25:50.655Z,14.95
2019-03-12T07:28:49.528Z,17.82
2019-03-12T07:31:14.447Z,19.35
2019-03-12T07:34:02.936Z,21.90
2019-03-12T07:36:41.571Z,22.07
2019-03-12T07:39:20.307Z,24.00
2019-03-12T07:41:52.574Z,17.27
2019-03-12T07:44:31.740Z,21.73
2019-03-12T07:47:04.122Z,24.43
2019-03-12T07:49:36.310Z,17.15
2019-03-12T07:52:08.971Z,11.80
2019-03-12T07:54:47.020Z,16.70
2019-03-12T07:57:31.682Z,15.60
2019-03-12T08:00:10.146Z,20.77
2019-03-12T08:02:42.499Z,20.15
2019-03-12T08:05:21.114Z,21.55
2019-03-12T08:07:53.299Z,20.35
2019-03-12T08:10:43.788Z,25.62
2019-03-12T08:13:32.549Z,24.25
2019-03-12T08:16:04.953Z,20.77
2019-03-12T08:18:43.174Z,18.25
2019-03-12T08:21:27.510Z,18.60
2019-03-12T08:24:14.950Z,20.10
2019-03-12T08:26:52.641Z,16.48
2019-03-12T08:29:24.947Z,20.08
2019-03-12T08:32:00.101Z,24.87
2019-03-12T08:34:41.288Z,17.62
2019-03-12T08:37:13.675Z,15.32
2019-03-12T08:40:02.413Z,10.68
2019-03-12T08:42:54.055Z,10.85
2019-03-12T08:45:34.619Z,11.95
2019-03-12T08:48:12.634Z,14.65
2019-03-12T08:50:43.884Z,6.78
2019-03-12T08:53:18.730Z,14.30
2019-03-12T08:55:59.814Z,8.50
2019-03-12T08:58:32.100Z,10.23
2019-03-12T09:01:07.457Z,5.08
2019-03-12T09:03:51.402Z,3.22
2019-03-12T09:06:23.592Z,10.28
2019-03-12T09:08:58.858Z,8.40
2019-03-12T09:11:46.269Z,10.90
2019-03-12T09:14:24.281Z,8.60
2019-03-12T09:17:02.229Z,16.60
2019-03-12T09:19:34.299Z,15.03
2019-03-12T09:22:06.694Z,11.12
2019-03-12T09:24:48.063Z,13.65
2019-03-12T09:27:23.118Z,10.60
2019-03-12T09:29:55.311Z,11.05
2019-03-12T09:32:27.788Z,16.32
2019-03-12T09:35:15.112Z,12.63
2019-03-12T09:37:59.485Z,13.48
2019-03-12T09:40:37.791Z,11.18
2019-03-12T09:43:13.247Z,12.85
2019-03-12T09:45:48.417Z,11.38
2019-03-12T09:48:27.140Z,12.90
2019-03-12T09:50:59.437Z,10.48
2019-03-12T09:53:40.725Z,8.93
2019-03-12T09:56:15.976Z,9.18
2019-03-12T09:58:51.318Z,11.70
2019-03-12T10:01:39.049Z,9.85
2019-03-12T10:04:13.808Z,9.38
2019-03-12T10:06:55.097Z,9.05
2019-03-12T10:09:43.835Z,5.17
2019-03-12T10:12:21.848Z,3.85
2019-03-12T10:15:05.592Z,2.50
2019-03-12T10:17:43.815Z,6.87
2019-03-12T10:20:24.997Z,4.87
2019-03-12T10:22:57.186Z,3.17
2019-03-12T10:25:35.300Z,5.65
2019-03-12T10:28:07.486Z,3.62
2019-03-12T10:30:48.793Z,2.25
2019-03-12T10:33:36.095Z,3.05
2019-03-12T10:36:14.590Z,2.17
2019-03-12T10:39:32.649Z,2.70
2019-03-12T10:42:08.088Z,3.77
2019-03-12T10:44:52.359Z,3.35
2019-03-12T10:47:27.389Z,3.62
2019-03-12T10:49:58.043Z,3.45
2019-03-12T10:55:11.740Z,2.50
2019-03-12T10:57:30.528Z,3.40
2019-03-12T11:00:00.973Z,6.47
2019-03-12T11:02:31.524Z,2.85
2019-03-12T11:05:02.055Z,2.42
2019-03-12T11:10:02.551Z,3.47
2019-03-12T11:15:02.940Z,3.47
2019-03-12T11:20:03.817Z,2.20
2019-03-12T11:22:34.071Z,2.05
2019-03-12T11:25:06.046Z,2.20
2019-03-12T11:27:36.283Z,3.62
2019-03-12T11:32:38.505Z,5.55
2019-03-12T11:37:39.211Z,2.25
2019-03-12T11:42:44.300Z,1.65
2019-03-12T11:47:47.341Z,4.22
2019-03-12T11:50:22.430Z,2.72
2019-03-12T11:52:56.980Z,2.40
2019-03-12T11:55:25.005Z,2.67
2019-03-12T12:00:39.250Z,2.73
2019-03-12T12:03:09.965Z,6.10
2019-03-12T12:05:40.193Z,3.95
2019-03-12T12:10:42.229Z,4.55
2019-03-12T12:13:12.959Z,4.25
2019-03-12T12:15:43.722Z,5.35
2019-03-12T12:20:44.220Z,5.40
2019-03-12T12:25:44.687Z,5.42
2019-03-12T12:28:15.361Z,2.40
2019-03-12T12:33:15.842Z,3.20
2019-03-12T12:38:16.431Z,3.55
2019-03-12T12:43:16.905Z,4.53
2019-03-12T12:48:18.529Z,8.48
2019-03-12T12:51:02.536Z,5.05
2019-03-12T12:53:21.444Z,4.65
2019-03-12T12:55:51.995Z,3.85
2019-03-12T13:00:52.486Z,3.47
2019-03-12T13:05:55.478Z,4.03
2019-03-12T13:08:25.152Z,4.62
2019-03-12T13:10:55.701Z,4.60
2019-03-12T13:13:26.267Z,3.15
2019-03-12T13:15:56.697Z,2.25
2019-03-12T13:20:57.181Z,3.10
2019-03-12T13:25:57.582Z,4.30
2019-03-12T13:30:58.048Z,5.90
2019-03-12T13:33:28.702Z,4.60
2019-03-12T13:35:59.251Z,3.02
2019-03-12T13:38:44.853Z,4.35
2019-03-12T13:41:03.507Z,7.47
2019-03-12T13:43:33.868Z,9.68
2019-03-12T13:46:04.421Z,6.50
2019-03-12T13:53:36.081Z,5.80
2019-03-12T13:56:06.747Z,10.25
2019-03-12T13:58:37.691Z,5.35
2019-03-12T14:01:08.349Z,3.37
2019-03-12T14:03:38.994Z,3.08
2019-03-12T14:06:09.644Z,7.05
2019-03-12T14:08:40.300Z,3.70
2019-03-12T14:13:40.781Z,3.00
2019-03-12T14:18:41.367Z,3.70
2019-03-12T14:21:12.972Z,4.28
2019-03-12T14:23:58.714Z,4.08
2019-03-12T14:26:29.054Z,4.05
2019-03-12T14:31:29.659Z,6.20
2019-03-12T14:34:00.311Z,4.97
2019-03-12T14:36:30.962Z,5.08
2019-03-12T14:39:01.596Z,7.95
2019-03-12T14:44:02.084Z,10.03
2019-03-12T14:46:32.733Z,5.12
2019-03-12T14:51:42.523Z,4.50
2019-03-12T14:54:13.695Z,5.90
2019-03-12T14:56:43.929Z,6.83
2019-03-12T15:01:44.432Z,10.13
2019-03-12T15:09:15.960Z,9.20
2019-03-12T15:11:46.613Z,9.35
2019-03-12T15:14:17.170Z,6.80
2019-03-12T15:19:17.750Z,4.90
2019-03-12T15:24:18.242Z,11.63
2019-03-12T15:26:49.113Z,9.33
2019-03-12T15:29:19.638Z,8.88
2019-03-12T15:32:03.122Z,13.22
2019-03-12T15:34:22.292Z,6.87
2019-03-12T15:39:22.774Z,9.43
2019-03-12T15:41:54.039Z,8.98
2019-03-12T15:46:54.527Z,14.13
2019-03-12T15:49:25.487Z,13.55
2019-03-12T15:51:56.315Z,15.25
2019-03-12T15:54:27.180Z,14.95
2019-03-12T15:56:57.933Z,12.30
2019-03-12T15:59:28.701Z,12.10
2019-03-12T16:01:59.354Z,16.00
2019-03-12T16:04:30.091Z,13.65
2019-03-12T16:07:01.887Z,17.60
2019-03-12T16:09:32.540Z,11.20
2019-03-12T16:12:03.275Z,17.62
2019-03-12T16:14:33.942Z,15.45
2019-03-12T16:17:04.781Z,22.73
2019-03-12T16:19:35.535Z,23.73
2019-03-12T16:22:06.306Z,23.35
2019-03-12T16:24:36.942Z,34.58
2019-03-12T16:27:07.798Z,109.35
2019-03-12T16:29:38.671Z,108.78
2019-03-12T16:32:09.425Z,92.37
2019-03-12T16:34:40.059Z,89.07
2019-03-12T16:37:10.932Z,92.70
2019-03-12T16:39:41.675Z,110.35
2019-03-12T16:42:12.424Z,97.75
2019-03-12T16:44:43.192Z,82.75
2019-03-12T16:47:14.034Z,96.35
2019-03-12T16:49:44.891Z,148.38
2019-03-12T16:52:15.765Z,128.40
2019-03-12T16:54:46.502Z,108.72
2019-03-12T16:57:17.372Z,105.58
2019-03-12T16:59:48.126Z,107.22
2019-03-12T17:02:18.863Z,90.15
2019-03-12T17:04:49.739Z,86.97
2019-03-12T17:07:20.592Z,94.95
2019-03-12T17:09:51.344Z,93.97
2019-03-12T17:12:21.983Z,125.38
2019-03-12T17:14:52.841Z,126.38
2019-03-12T17:17:23.614Z,123.30
2019-03-12T17:19:54.465Z,135.97
2019-03-12T17:24:54.849Z,117.23
2019-03-12T17:27:28.358Z,111.70
2019-03-12T17:30:00.403Z,104.45
2019-03-12T17:32:32.728Z,81.10
2019-03-12T17:35:03.363Z,99.72
2019-03-12T17:40:04.055Z,95.73
2019-03-12T17:42:34.933Z,100.07
2019-03-12T17:45:08.397Z,101.15
2019-03-12T17:47:39.021Z,93.17
2019-03-12T17:50:12.285Z,98.58
2019-03-12T17:52:42.957Z,107.58
2019-03-12T17:55:15.355Z,101.50
2019-03-12T17:57:45.879Z,139.47
2019-03-12T18:00:22.365Z,159.07
2019-03-12T18:02:53.233Z,174.75
2019-03-12T18:05:24.089Z,102.87
2019-03-12T18:07:54.844Z,85.20
2019-03-12T18:10:25.479Z,88.42
2019-03-12T18:12:56.666Z,87.10
2019-03-12T18:15:27.088Z,94.83
2019-03-12T18:17:57.859Z,82.95
2019-03-12T18:20:28.493Z,105.72
2019-03-12T18:22:59.352Z,206.47
2019-03-12T18:25:38.389Z,215.65
2019-03-12T18:28:10.166Z,190.75
2019-03-12T18:30:40.637Z,141.28
2019-03-12T18:33:11.364Z,126.18
2019-03-12T18:35:42.143Z,161.77
2019-03-12T18:38:12.996Z,162.80
2019-03-12T18:40:43.850Z,190.03
2019-03-12T18:43:15.104Z,181.55
2019-03-12T18:45:45.795Z,124.40
2019-03-12T18:48:16.622Z,115.90
2019-03-12T18:50:48.286Z,110.85
2019-03-12T18:53:19.136Z,131.50
2019-03-12T18:55:53.182Z,119.37
2019-03-12T18:58:23.625Z,127.55
2019-03-12T19:00:54.466Z,118.85
2019-03-12T19:05:54.966Z,161.47
2019-03-12T19:10:55.351Z,242.23
2019-03-12T19:13:25.985Z,259.30
2019-03-12T19:18:26.468Z,253.43
2019-03-12T19:20:57.239Z,212.68
2019-03-12T19:23:28.087Z,176.68
2019-03-12T19:25:58.832Z,233.50
2019-03-12T19:28:29.588Z,236.32
2019-03-12T19:31:13.944Z,228.58
2019-03-12T19:33:44.703Z,209.50
2019-03-12T19:36:15.568Z,207.50
2019-03-12T19:38:46.430Z,172.98
2019-03-12T19:41:17.091Z,188.60
2019-03-12T19:43:48.019Z,174.77
2019-03-12T19:46:18.791Z,175.15
2019-03-12T19:48:49.787Z,154.87
2019-03-12T19:51:21.217Z,155.65
2019-03-12T19:53:51.750Z,162.75
2019-03-12T19:56:22.623Z,138.55
2019-03-12T19:58:53.479Z,133.00
2019-03-12T20:01:24.112Z,125.72
2019-03-12T20:03:54.458Z,157.00
2019-03-12T20:08:55.050Z,111.05
2019-03-12T20:11:48.519Z,98.62
2019-03-12T20:14:51.086Z,87.37
2019-03-12T20:17:36.955Z,94.42
2019-03-12T20:20:41.074Z,104.78
2019-03-12T20:23:31.647Z,126.35
2019-03-12T20:26:34.228Z,128.82
2019-03-12T20:29:20.223Z,159.78
2019-03-12T20:32:11.613Z,167.25
2019-03-12T20:35:06.320Z,199.17
2019-03-12T20:38:13.483Z,349.23
2019-03-12T20:40:49.384Z,405.13
2019-03-12T20:43:42.084Z,431.37
2019-03-12T20:46:38.604Z,468.55
2019-03-12T20:49:38.214Z,398.45
2019-03-12T20:52:32.685Z,260.55
2019-03-12T20:55:40.167Z,265.57
2019-03-12T20:58:47.538Z,276.23
2019-03-12T21:01:30.461Z,207.80
2019-03-12T21:04:19.519Z,171.43
2019-03-12T21:06:53.550Z,118.85
2019-03-12T21:09:43.719Z,101.00
2019-03-12T21:12:23.574Z,93.47
2019-03-12T21:15:26.133Z,74.57
2019-03-12T21:18:22.669Z,74.70
2019-03-12T21:21:21.968Z,76.50
2019-03-12T21:24:01.113Z,66.67
2019-03-12T21:26:43.400Z,66.70
2019-03-12T21:29:45.040Z,71.40
2019-03-12T21:32:16.715Z,74.58
2019-03-12T21:34:47.384Z,75.35
2019-03-12T21:37:17.816Z,69.55
2019-03-12T21:39:55.325Z,64.87
2019-03-12T21:42:20.690Z,75.47
2019-03-12T21:44:52.736Z,62.75
2019-03-12T21:47:23.079Z,74.60
2019-03-12T21:52:24.486Z,65.10
2019-03-12T21:54:55.339Z,63.73
2019-03-12T21:57:26.094Z,65.87
2019-03-12T22:02:26.581Z,59.03
2019-03-12T22:04:57.332Z,57.27
2019-03-12T22:07:28.089Z,65.15
2019-03-12T22:09:59.045Z,74.85
2019-03-12T22:12:29.920Z,65.25
2019-03-12T22:15:00.653Z,71.33
2019-03-12T22:17:31.511Z,59.85
2019-03-12T22:22:33.758Z,53.20
2019-03-12T22:25:06.790Z,60.28
2019-03-12T22:27:37.200Z,56.40
2019-03-12T22:30:14.180Z,58.10
2019-03-12T22:32:44.833Z,63.50
2019-03-12T22:37:45.439Z,68.62
2019-03-12T22:40:16.276Z,79.05
2019-03-12T22:42:47.128Z,69.03
2019-03-12T22:45:17.884Z,56.13
2019-03-12T22:47:48.637Z,50.60
2019-03-12T22:50:19.288Z,53.25
2019-03-12T22:52:51.902Z,50.12
2019-03-12T22:55:22.653Z,57.90
2019-03-12T22:57:53.500Z,63.40
2019-03-12T23:00:24.249Z,60.70
2019-03-12T23:02:54.811Z,56.10
2019-03-12T23:05:25.575Z,54.53
2019-03-12T23:07:56.321Z,55.15
2019-03-12T23:10:27.386Z,50.48
2019-03-12T23:12:58.235Z,51.35
2019-03-12T23:15:28.685Z,53.25
2019-03-12T23:17:59.447Z,52.10
2019-03-12T23:20:30.189Z,55.28
2019-03-12T23:23:00.847Z,49.15
2019-03-12T23:25:31.702Z,49.58
2019-03-12T23:28:02.454Z,49.95
2019-03-12T23:30:33.113Z,43.05
2019-03-12T23:33:03.960Z,37.05
2019-03-12T23:35:34.823Z,36.20
2019-03-12T23:38:05.579Z,30.17
2019-03-12T23:40:36.222Z,33.35
2019-03-12T23:43:06.978Z,30.43
2019-03-12T23:45:37.835Z,43.13
2019-03-12T23:48:08.589Z,42.17
2019-03-12T23:50:39.443Z,55.33
2019-03-12T23:53:10.508Z,54.08
2019-03-12T23:55:40.955Z,71.10
2019-03-12T23:58:11.707Z,64.00
